Northern & Central Napa County

33 Stations

15 Minute Data | America/Los_Angeles
as of 9/3/26 5:32 PM PDT
Station Date Time Temp (°F) RH (%) Dew Pt (°F) Wind Spd (mph) Wind Dir (°) Wind Gust (mph) Latest Rain (In) Daily Rain (In) Daily Max Temp (°F) Daily Min Temp (°F)
Tenma (North Calistoga) 9/3/26 1730 62.2   13.5 - - - - - 0.00 0.10 70.5   6.3 55.7   0.7
Calistoga-Solari 9/3/26 1730 62.0   10.4 87   38 58.2   6.1 2.6   4.6 N | 0 4.8   7.4 0.00 0.11 68.7   5.8 55.4   1.0
Calistoga-North 9/3/26 1730 63.0   11.1 86   36 58.8   4.3 - - - 0.00 0.06 68.7   9.3 56.9   1.0
Twomey Calistoga 9/3/26 1730 64.1   10.5 81   35 58.4   5.5 1.9   2.9 N | 352 3.6   7.7 0.00 0.08 74.2   3.4 55.4   5.6
Paloma 9/3/26 1730 63.2   11.6 84   35 58.3   4.0 1.4   5.0 E | 92 3.6   7.8 0.00 0.07 69.5   8.5 57.8   1.7
Calistoga (Ranch 78) 9/3/26 1730 63.1   10.3 83   36 58.0   6.0 1.9   2.3 NNW | 336 4.2   5.6 0.00 0.06 71.6   4.5 55.8   1.1
Diamond Mtn (Schramsberg) 9/3/26 1730 60.9   9.2 87   36 57.1   5.6 - - - 0.00 0.08 69.7   3.3 55.3   0.5
Diamond Mtn (McEachran) 9/3/26 1730 61.4   9.7 87   35 57.4   5.2 - - - - - 69.1   3.9 56.3   0.4
Deer Park 9/3/26 1730 60.4   12.0 86   38 56.2   4.8 3.3   1.9 NW | 305 7.2   3.0 0.00 0.03 66.7   9.2 56.8   0.8
St. Helena-North 9/3/26 1730 63.6   8.9 76   31 56.1   5.8 0.7   2.0 NNE | 30 2.6   7.5 0.00 0.10 72.6   4.8 56.0   0.1
St. Helena (NVV Office) 9/3/26 1730 63.5   11.6 - - 0.9   1.8 NNE | 23 2.8   4.6 0.00 0.02 73.2   5.2 57.5   1.7
Tiara Fria (East St. Helena) 9/3/26 1730 62.8   11.9 86   41 58.6   6.6 2.0   2.5 NNW | 347 4.6   4.5 0.00 0.00 70.4   6.8 56.8   3.3
Prisoner Winery 9/3/26 1730 63.6   10.1 85   40 59.0   8.1 2.3   2.2 N | 349 4.7   6.2 0.00 0.01 73.4   3.5 53.0   0.3
Rutherford Hill Estate 9/3/26 1730 63.0   13.2 87   43 59.1   6.6 1.0   1.9 N | 352 3.5   6.6 0.01 0.03 69.5   8.4 56.4   0.6
Rutherford-North (Mee Ln) 9/3/26 1730 63.4   11.1 83   37 58.2   6.0 2.0   3.9 NNW | 342 5.3   9.4 0.00 0.01 73.4   3.5 50.9   0.9
Rutherford (STS) 9/3/26 1730 63.2   10.0 90   39 60.4   5.9 2.0   3.3 ENE | 74 3.9   8.6 0.01 0.02 75.2   3.7 51.2   1.1
Silver Oak OV 9/3/26 1730 63.3   10.4 86   40 58.9   7.6 1.4   5.3 ENE | 66 3.7   8.7 0.01 0.02 70.9   5.5 51.2   1.3
Oakville-NE (Ranch 88) 9/3/26 1730 63.6   11.7 85   45 58.9   9.5 0.1   5.2 SE | 126 3.0   8.1 0.01 0.02 71.3   5.8 49.9   1.7
Crossroads Ranch 9/3/26 1730 63.3   9.9 86   35 59.2   5.0 1.2   5.0 NE | 54 2.7   8.9 0.02 0.03 70.6   5.4 52.0   0.8
Oakville 9/3/26 1730 63.2   11.1 86   43 59.0   8.5 0.8   5.1 ENE | 62 2.3   10.0 0.01 0.01 71.1   5.5 52.2   0.4
To Kalon Remote (TKKE) 9/3/26 1730 64.4   10.3 - - - - - - - 74.7   3.9 54.8   1.2
To Kalon 9/3/26 1730 63.3   10.0 84   38 58.3   7.1 2.3   2.8 W | 261 6.7   4.0 0.00 0.00 72.0   4.8 56.6   3.0
To Kalon Remote (TKN5) 9/3/26 1730 63.5   10.5 - - - - - - - 72.9   4.5 56.7   3.1
Jump Rock 9/3/26 1730 58.2   10.4 98   42 57.7   5.3 1.9   2.0 WNW | 282 4.0   5.0 0.02 0.26 62.2   7.3 47.9   4.2
State Lane Ranch 9/3/26 1730 63.0   12.4 90   43 60.0   6.2 1.4   5.6 WNW | 287 3.8   8.3 0.01 0.02 68.9   8.5 54.7   4.2
Yountville (Ranch 67) 9/3/26 1730 62.1   11.2 84   43 57.2   8.8 2.1   3.6 NW | 305 5.0   8.4 0.01 0.02 68.4   7.7 54.6   3.4
Borreo (Soda Canyon) 9/3/26 1145 62.9   1.9 81   13 56.8   2.2 3.1   0.1 SSE | 161 8.5   2.3 0.00 0.00 63.0   1.9 53.6   2.8
Wappo Hill Floor 9/3/26 1730 62.4   12.3 87   42 58.4   6.8 5.4   0.3 NNW | 347 8.2   1.2 0.00 0.01 69.2   7.3 55.7   3.6
Wappo Hill 9/3/26 1730 62.5   11.4 84   40 57.7   6.8 7.0   4.0 NW | 312 11.2   5.5 0.00 0.00 69.0   7.3 56.3   1.7
Stags Leap Dist (Chimney Rock) 9/3/26 1730 63.0   12.5 91   43 60.5   5.7 4.1   0.6 N | 356 7.9   1.1 0.00 0.04 68.7   8.4 55.2   2.8
Stags Leap Dist (Silverado Vineyards) 9/3/26 1730 62.8   12.7 83   40 57.5   6.4 0.2   1.1 NW | 312 2.6   2.7 0.00 0.01 68.0   8.2 55.4   3.3
Yountville-SE (Ranch 85) 9/3/26 1730 62.8   12.3 88   44 59.3   7.4 4.5   0.3 NNE | 22 9.2   1.0 0.01 0.04 68.6   8.7 54.5   1.6
Yountville-South (Ranch 87) 9/3/26 1730 63.6   10.9 87   41 59.6   7.6 1.0   2.9 NNE | 24 3.7   4.6 0.01 0.01 69.3   7.0 53.9   1.5
Max     64.4 98 60.5 7.0 - 11.2 0.02 0.26 75.2 57.8
Avg     62.8 86 58.4 2.1 - 4.8 0.00 - - -
Min     58.2 76 56.1 0.1 - 2.3 0.00 0.00 62.2 47.9